To NAV CANADA Home Page Login to a new session Search on AWWS site Disclaimer Vers la page française équivalente Tips FAQ What's new on the site To the Forecasts and Observations / NOTAM section To "File a Flight Plan" website Publications and other links Update of the User's profile FIC Telephone Numbers My Weather Data Folder Route Weather Data Regional Weather Data Local Weather Data To the Forecasts and Observations / NOTAM section
Request Generated 04/25/2019 at 08:05:39 UTC . Weather information available at that time is displayed.

METAR/TAF

EUREKA/NU    

METAR CWEU 250800Z 11002KT 15SM FEW130 OVC200 M28/M32 A3001 RMK AC1CI8 AC TR CC ASOCTD SLP165=
METAR CWEU 250700Z 13005KT 15SM FEW130 OVC200 M28/M31 A2999 RMK AC1CI7 SLP160=
METAR CWEU 250600Z 21003KT 200V280 15SM FEW130 OVC200 M27/M31 A2999 RMK AC2CI6 SLP159=

*** REMARK        : Forecast period has ended; this was the last TAF issued
*** REMARQUE : La période de prévision est échue; ceci était le dernier TAF qui a été émis
TAF CYEU 242339Z 2500/2502 ADVISORY OFFSITE VRB03KT P6SM BKN100 TEMPO
2500/2502 4SM -SN BR BKN080 BKN200
RMK NXT FCST WILL BE ISSUED AT 251045Z=
Your time UTC time
Weather data provided by Environment Canada and NAV CANADA